Time;durP1;ratioP1;P1;durP2;ratioP2;P2;SDS_P1;SDS_P2;PMS_P1;PMS_P2;Temp;Humidity;BMP_temperature;BMP_pressure;BME280_temperature;BME280_humidity;BME280_pressure;Samples;Min_cycle;Max_cycle;Signal;HPM_P1;HPM_P2
2023/09/17 00:00:36;;;;;;;14.48;10.30;;;;;;;;;;5036132;28;20053;-30
2023/09/17 00:03:03;;;;;;;13.85;9.68;;;;;;;;;;5035663;28;20025;-31
2023/09/17 00:05:28;;;;;;;14.32;9.38;;;;;;;;;;5036156;28;20097;-31
2023/09/17 00:07:53;;;;;;;14.63;9.73;;;;;;;;;;5036015;28;20484;-31
2023/09/17 00:10:18;;;;;;;12.37;9.63;;;;;;;;;;5036065;28;20018;-31
2023/09/17 00:12:43;;;;;;;16.67;9.93;;;;;;;;;;5035724;28;20645;-30
2023/09/17 00:15:09;;;;;;;13.93;10.23;;;;;;;;;;5035930;28;20260;-30
2023/09/17 00:17:34;;;;;;;15.23;9.52;;;;;;;;;;5035836;28;20464;-30
2023/09/17 00:19:59;;;;;;;15.63;10.63;;;;;;;;;;5035589;28;20028;-31
2023/09/17 00:22:24;;;;;;;14.90;9.80;;;;;;;;;;5034171;28;20284;-30
2023/09/17 00:24:50;;;;;;;12.75;9.57;;;;;;;;;;5035537;28;20268;-31
2023/09/17 00:27:15;;;;;;;16.92;9.85;;;;;;;;;;5035441;28;20013;-31
2023/09/17 00:29:40;;;;;;;11.90;9.88;;;;;;;;;;5035765;28;20045;-30
2023/09/17 00:32:05;;;;;;;16.40;10.07;;;;;;;;;;5035586;28;20419;-31
2023/09/17 00:34:31;;;;;;;13.03;10.07;;;;;;;;;;5035396;28;20021;-31
2023/09/17 00:36:56;;;;;;;14.43;10.67;;;;;;;;;;5035255;28;20259;-31
2023/09/17 00:39:21;;;;;;;13.80;9.80;;;;;;;;;;5035523;28;20527;-31
2023/09/17 00:41:46;;;;;;;16.23;10.60;;;;;;;;;;5035493;28;20094;-31
2023/09/17 00:44:12;;;;;;;14.70;9.87;;;;;;;;;;5035397;28;20264;-30
2023/09/17 00:46:37;;;;;;;13.00;10.30;;;;;;;;;;5035704;28;20290;-31
2023/09/17 00:49:02;;;;;;;16.17;10.57;;;;;;;;;;5035602;28;20017;-31
2023/09/17 00:51:28;;;;;;;16.08;10.27;;;;;;;;;;5034468;28;20491;-31
2023/09/17 00:53:55;;;;;;;14.13;10.25;;;;;;;;;;5034871;28;20029;-30
2023/09/17 00:56:21;;;;;;;15.57;10.35;;;;;;;;;;5035235;28;20021;-31
2023/09/17 00:58:46;;;;;;;12.23;10.10;;;;;;;;;;5034840;28;20540;-31
2023/09/17 01:01:14;;;;;;;16.08;11.23;;;;;;;;;;5034720;28;20036;-30
2023/09/17 01:03:39;;;;;;;15.55;10.93;;;;;;;;;;5035039;28;20450;-30
2023/09/17 01:06:06;;;;;;;14.82;9.98;;;;;;;;;;5033507;28;20113;-31
2023/09/17 01:08:32;;;;;;;14.35;10.55;;;;;;;;;;5034757;28;20526;-31
2023/09/17 01:10:57;;;;;;;15.75;10.85;;;;;;;;;;5034543;28;20017;-31
2023/09/17 01:13:23;;;;;;;18.23;10.95;;;;;;;;;;5034889;28;20132;-31
2023/09/17 01:15:50;;;;;;;16.60;10.85;;;;;;;;;;5034861;28;20017;-31
2023/09/17 01:18:18;;;;;;;17.42;11.02;;;;;;;;;;5034710;28;20425;-30
2023/09/17 01:20:52;;;;;;;15.00;10.70;;;;;;;;;;5034344;28;20021;-30
2023/09/17 01:23:28;;;;;;;14.05;10.38;;;;;;;;;;5034651;28;20021;-31
2023/09/17 01:25:57;;;;;;;16.60;10.93;;;;;;;;;;5034353;28;20022;-30
2023/09/17 01:28:22;;;;;;;17.35;11.23;;;;;;;;;;5034286;28;20108;-30
2023/09/17 01:30:48;;;;;;;16.25;10.93;;;;;;;;;;5034483;28;20102;-29
2023/09/17 01:33:13;;;;;;;19.70;10.48;;;;;;;;;;5034971;28;20071;-30
2023/09/17 01:35:44;;;;;;;15.30;10.93;;;;;;;;;;5034199;28;20018;-30
2023/09/17 01:38:11;;;;;;;15.32;11.18;;;;;;;;;;5034481;28;20253;-30
2023/09/17 01:40:37;;;;;;;14.43;10.98;;;;;;;;;;5034411;28;20538;-29
2023/09/17 01:43:04;;;;;;;17.13;11.48;;;;;;;;;;5034177;28;20056;-31
2023/09/17 01:45:29;;;;;;;14.75;11.15;;;;;;;;;;5034342;28;20457;-30
2023/09/17 01:47:55;;;;;;;15.85;11.25;;;;;;;;;;5033976;28;20014;-31
2023/09/17 01:50:23;;;;;;;15.48;12.05;;;;;;;;;;5034295;28;20013;-31
2023/09/17 01:52:48;;;;;;;16.52;11.73;;;;;;;;;;5034174;28;20144;-31
2023/09/17 01:55:13;;;;;;;16.65;11.20;;;;;;;;;;5033761;28;20484;-31
2023/09/17 01:57:39;;;;;;;16.27;11.90;;;;;;;;;;5033857;28;20437;-30
2023/09/17 02:00:16;;;;;;;16.73;11.25;;;;;;;;;;5034038;28;20075;-31
2023/09/17 02:02:46;;;;;;;16.13;11.93;;;;;;;;;;5033878;28;20059;-31
2023/09/17 02:05:12;;;;;;;19.40;12.05;;;;;;;;;;5033587;28;20076;-31
2023/09/17 02:07:37;;;;;;;16.15;11.73;;;;;;;;;;5033675;28;20036;-30
2023/09/17 02:10:02;;;;;;;16.20;12.03;;;;;;;;;;5034230;28;20097;-32
2023/09/17 02:12:28;;;;;;;20.48;12.13;;;;;;;;;;5033871;28;20091;-31
2023/09/17 02:14:54;;;;;;;16.52;12.00;;;;;;;;;;5033844;28;20022;-31
2023/09/17 02:17:19;;;;;;;18.13;11.87;;;;;;;;;;5033497;28;20033;-31
2023/09/17 02:19:44;;;;;;;20.10;11.80;;;;;;;;;;5033744;28;20257;-30
2023/09/17 02:22:09;;;;;;;16.30;12.53;;;;;;;;;;5033447;28;20646;-31
2023/09/17 02:24:34;;;;;;;17.40;12.60;;;;;;;;;;5033459;28;20259;-32
2023/09/17 02:27:00;;;;;;;22.10;12.60;;;;;;;;;;5034059;28;20245;-31
2023/09/17 02:29:25;;;;;;;16.55;12.43;;;;;;;;;;5033687;28;20063;-31
2023/09/17 02:31:50;;;;;;;24.83;13.23;;;;;;;;;;5033934;28;20345;-30
2023/09/17 02:34:16;;;;;;;18.13;12.63;;;;;;;;;;5033587;28;20045;-31
2023/09/17 02:36:41;;;;;;;19.97;12.97;;;;;;;;;;5033946;28;20021;-31
2023/09/17 02:39:08;;;;;;;16.80;12.80;;;;;;;;;;5033405;28;20017;-30
2023/09/17 02:41:33;;;;;;;17.55;13.05;;;;;;;;;;5033502;28;20353;-31
2023/09/17 02:43:59;;;;;;;20.03;13.57;;;;;;;;;;5033265;28;20453;-31
2023/09/17 02:46:24;;;;;;;21.48;13.32;;;;;;;;;;5033551;28;20056;-31
2023/09/17 02:48:50;;;;;;;18.00;12.77;;;;;;;;;;5033179;28;20033;-31
2023/09/17 02:51:16;;;;;;;17.48;13.40;;;;;;;;;;5033158;28;20120;-31
2023/09/17 02:53:41;;;;;;;17.52;13.13;;;;;;;;;;5033148;28;20053;-31
2023/09/17 02:56:06;;;;;;;19.83;13.50;;;;;;;;;;5033453;28;20350;-31
2023/09/17 02:58:32;;;;;;;19.33;14.03;;;;;;;;;;5033062;28;20025;-31
2023/09/17 03:00:57;;;;;;;19.83;13.75;;;;;;;;;;5033364;28;20021;-32
2023/09/17 03:03:22;;;;;;;21.03;13.63;;;;;;;;;;5033077;28;20112;-31
2023/09/17 03:05:47;;;;;;;20.30;13.77;;;;;;;;;;5033389;28;20096;-31
2023/09/17 03:08:13;;;;;;;18.47;13.93;;;;;;;;;;5033330;28;20023;-32
2023/09/17 03:10:42;;;;;;;22.42;14.25;;;;;;;;;;5033011;28;20259;-32
2023/09/17 03:13:11;;;;;;;19.23;14.07;;;;;;;;;;5033288;28;20401;-30
2023/09/17 03:15:36;;;;;;;20.55;14.88;;;;;;;;;;5034806;28;20021;-30
2023/09/17 03:18:02;;;;;;;19.60;14.37;;;;;;;;;;5036950;28;20091;-30
2023/09/17 03:20:27;;;;;;;21.00;13.90;;;;;;;;;;5037019;28;20255;-30
2023/09/17 03:22:53;;;;;;;21.00;15.00;;;;;;;;;;5036933;28;20044;-31
2023/09/17 03:25:19;;;;;;;19.63;14.63;;;;;;;;;;5036883;28;20068;-31
2023/09/17 03:27:44;;;;;;;19.40;14.48;;;;;;;;;;5036870;28;20018;-31
2023/09/17 03:30:10;;;;;;;22.02;14.52;;;;;;;;;;5036807;28;20083;-30
2023/09/17 03:32:35;;;;;;;21.15;14.63;;;;;;;;;;5036498;28;20056;-31
2023/09/17 03:35:01;;;;;;;19.75;14.90;;;;;;;;;;5036490;28;20032;-31
2023/09/17 03:37:26;;;;;;;22.90;15.00;;;;;;;;;;5036693;28;20049;-31
2023/09/17 03:40:08;;;;;;;21.88;14.90;;;;;;;;;;5036375;28;20029;-31
2023/09/17 03:42:34;;;;;;;21.73;14.30;;;;;;;;;;5036520;28;20025;-31
2023/09/17 03:44:59;;;;;;;19.63;14.68;;;;;;;;;;5036307;28;20021;-31
2023/09/17 03:47:24;;;;;;;17.20;12.97;;;;;;;;;;5036733;28;20025;-31
2023/09/17 03:49:49;;;;;;;18.57;13.47;;;;;;;;;;5036307;28;20572;-30
2023/09/17 03:52:14;;;;;;;18.90;12.60;;;;;;;;;;5036702;28;20253;-30
2023/09/17 03:54:39;;;;;;;19.63;13.40;;;;;;;;;;5036119;28;20372;-31
2023/09/17 03:57:05;;;;;;;18.73;13.33;;;;;;;;;;5036002;28;20300;-31
2023/09/17 03:59:30;;;;;;;22.02;13.02;;;;;;;;;;5036538;28;20072;-31
2023/09/17 04:01:55;;;;;;;17.33;12.93;;;;;;;;;;5035905;28;20022;-31
2023/09/17 04:04:21;;;;;;;15.23;11.98;;;;;;;;;;5035958;28;20334;-31
2023/09/17 04:06:46;;;;;;;17.67;13.10;;;;;;;;;;5036182;28;20518;-30
2023/09/17 04:09:13;;;;;;;19.15;12.63;;;;;;;;;;5036185;28;20256;-30
2023/09/17 04:11:38;;;;;;;19.55;12.52;;;;;;;;;;5036074;28;20025;-30
2023/09/17 04:14:06;;;;;;;18.23;12.50;;;;;;;;;;5035766;28;20380;-30
2023/09/17 04:16:32;;;;;;;17.15;12.73;;;;;;;;;;5035993;28;20688;-31
2023/09/17 04:18:57;;;;;;;19.13;12.75;;;;;;;;;;5035873;28;20060;-30
2023/09/17 04:21:22;;;;;;;15.80;12.17;;;;;;;;;;5035570;28;20456;-31
2023/09/17 04:23:47;;;;;;;16.00;12.10;;;;;;;;;;5036154;28;20260;-31
2023/09/17 04:26:13;;;;;;;17.73;12.30;;;;;;;;;;5035147;28;20017;-31
2023/09/17 04:28:38;;;;;;;17.23;12.35;;;;;;;;;;5035282;28;20045;-30
2023/09/17 04:31:04;;;;;;;18.60;11.40;;;;;;;;;;5035429;28;20040;-31
2023/09/17 04:33:29;;;;;;;17.02;12.25;;;;;;;;;;5035699;28;20025;-31
2023/09/17 04:35:55;;;;;;;18.30;12.07;;;;;;;;;;5035901;28;20018;-31
2023/09/17 04:38:20;;;;;;;15.98;12.15;;;;;;;;;;5035591;28;20100;-30
2023/09/17 04:40:45;;;;;;;16.17;11.97;;;;;;;;;;5035286;28;20504;-30
2023/09/17 04:43:10;;;;;;;17.53;11.77;;;;;;;;;;5035712;28;20025;-32
2023/09/17 04:45:39;;;;;;;17.50;11.83;;;;;;;;;;5035163;28;20412;-31
2023/09/17 04:48:04;;;;;;;18.30;12.50;;;;;;;;;;5034621;28;20079;-31
2023/09/17 04:50:30;;;;;;;16.50;12.73;;;;;;;;;;5035295;28;20029;-30
2023/09/17 04:52:56;;;;;;;22.05;12.90;;;;;;;;;;5035029;28;20048;-31
2023/09/17 04:55:21;;;;;;;16.70;12.63;;;;;;;;;;5035230;28;20025;-30
2023/09/17 04:57:46;;;;;;;18.30;12.23;;;;;;;;;;5035187;28;20388;-30
2023/09/17 05:00:12;;;;;;;25.70;12.27;;;;;;;;;;5035471;28;20029;-31
2023/09/17 05:02:39;;;;;;;20.48;13.27;;;;;;;;;;5034809;28;20595;-32
2023/09/17 05:05:05;;;;;;;16.98;13.07;;;;;;;;;;5034560;28;20116;-31
2023/09/17 05:07:30;;;;;;;22.23;13.82;;;;;;;;;;5035130;28;20449;-32
2023/09/17 05:09:55;;;;;;;19.77;13.00;;;;;;;;;;5034971;28;20020;-31
2023/09/17 05:12:21;;;;;;;19.80;13.83;;;;;;;;;;5035242;28;20024;-31
2023/09/17 05:14:46;;;;;;;21.73;14.33;;;;;;;;;;5034626;28;20723;-31
2023/09/17 05:17:13;;;;;;;18.67;14.00;;;;;;;;;;5034641;28;20375;-31
2023/09/17 05:19:38;;;;;;;19.92;14.10;;;;;;;;;;5034366;28;20021;-32
2023/09/17 05:22:03;;;;;;;20.17;14.80;;;;;;;;;;5034702;28;20032;-31
2023/09/17 05:24:28;;;;;;;20.90;15.17;;;;;;;;;;5034452;28;20457;-32
2023/09/17 05:26:54;;;;;;;21.50;15.03;;;;;;;;;;5034908;28;20097;-31
2023/09/17 05:29:19;;;;;;;19.90;15.33;;;;;;;;;;5034347;28;20010;-32
2023/09/17 05:31:44;;;;;;;21.83;15.00;;;;;;;;;;5034850;28;20022;-32
2023/09/17 05:34:09;;;;;;;25.40;15.67;;;;;;;;;;5034212;28;20743;-32
2023/09/17 05:36:34;;;;;;;19.93;15.90;;;;;;;;;;5034160;28;20021;-31
2023/09/17 05:39:00;;;;;;;23.53;16.20;;;;;;;;;;5034171;28;20252;-31
2023/09/17 05:41:25;;;;;;;24.95;16.35;;;;;;;;;;5033944;28;20793;-32
2023/09/17 05:43:50;;;;;;;21.67;16.23;;;;;;;;;;5034630;28;20022;-31
2023/09/17 05:46:15;;;;;;;21.33;16.27;;;;;;;;;;5034635;28;20014;-31
2023/09/17 05:48:40;;;;;;;22.80;16.73;;;;;;;;;;5034007;28;20719;-32
2023/09/17 05:51:07;;;;;;;21.87;16.93;;;;;;;;;;5034165;28;20108;-31
2023/09/17 05:53:32;;;;;;;24.45;17.02;;;;;;;;;;5034109;28;20326;-30
2023/09/17 05:55:57;;;;;;;24.90;17.20;;;;;;;;;;5034363;28;20014;-31
2023/09/17 05:58:23;;;;;;;21.47;16.53;;;;;;;;;;5033964;28;20754;-30
2023/09/17 06:00:48;;;;;;;23.63;17.17;;;;;;;;;;5034055;28;20244;-30
2023/09/17 06:03:14;;;;;;;27.05;18.40;;;;;;;;;;5033332;28;20048;-30
2023/09/17 06:05:40;;;;;;;27.30;18.17;;;;;;;;;;5033576;28;20021;-31
2023/09/17 06:08:05;;;;;;;26.42;18.42;;;;;;;;;;5034385;28;20032;-30
2023/09/17 06:10:30;;;;;;;27.63;19.55;;;;;;;;;;5033920;28;20021;-30
2023/09/17 06:12:56;;;;;;;29.67;20.03;;;;;;;;;;5034477;28;20014;-30
2023/09/17 06:15:21;;;;;;;27.73;20.00;;;;;;;;;;5033575;28;20264;-31
2023/09/17 06:17:46;;;;;;;33.83;20.90;;;;;;;;;;5033858;28;20267;-30
2023/09/17 06:20:11;;;;;;;31.73;20.57;;;;;;;;;;5034134;28;20026;-31
2023/09/17 06:22:36;;;;;;;32.78;21.40;;;;;;;;;;5033722;28;20272;-31
2023/09/17 06:25:03;;;;;;;33.33;21.93;;;;;;;;;;5033511;28;20018;-30
2023/09/17 06:27:29;;;;;;;36.58;22.98;;;;;;;;;;5033392;28;20252;-31
2023/09/17 06:29:55;;;;;;;35.70;22.38;;;;;;;;;;5033703;28;20092;-31
2023/09/17 06:32:20;;;;;;;35.17;22.75;;;;;;;;;;5033716;28;20440;-32
2023/09/17 06:34:45;;;;;;;34.92;23.98;;;;;;;;;;5034112;28;20029;-31
2023/09/17 06:37:10;;;;;;;30.77;22.30;;;;;;;;;;5033959;28;20051;-31
2023/09/17 06:39:36;;;;;;;39.10;23.15;;;;;;;;;;5033352;28;20053;-30
2023/09/17 06:42:01;;;;;;;30.08;21.13;;;;;;;;;;5033587;28;20392;-30
2023/09/17 06:44:26;;;;;;;34.67;22.73;;;;;;;;;;5033345;28;20017;-30
2023/09/17 06:46:51;;;;;;;38.17;23.03;;;;;;;;;;5033254;28;20025;-31
2023/09/17 06:49:18;;;;;;;31.30;22.07;;;;;;;;;;5033578;28;20029;-31
2023/09/17 06:51:43;;;;;;;30.70;21.10;;;;;;;;;;5037020;28;20378;-32
2023/09/17 06:54:08;;;;;;;26.43;19.40;;;;;;;;;;5037305;28;20464;-32
2023/09/17 06:56:34;;;;;;;31.75;21.20;;;;;;;;;;5037475;28;20331;-32
2023/09/17 06:58:59;;;;;;;30.58;20.48;;;;;;;;;;5037392;28;20456;-30
2023/09/17 07:01:24;;;;;;;29.02;20.58;;;;;;;;;;5037113;28;20021;-30
2023/09/17 07:03:49;;;;;;;28.63;19.40;;;;;;;;;;5036993;28;20041;-30
2023/09/17 07:06:16;;;;;;;32.60;21.30;;;;;;;;;;5036975;28;20072;-31
2023/09/17 07:08:41;;;;;;;32.15;19.52;;;;;;;;;;5037305;28;20021;-31
2023/09/17 07:11:06;;;;;;;28.60;19.42;;;;;;;;;;5037190;28;20017;-31
2023/09/17 07:13:31;;;;;;;30.87;20.73;;;;;;;;;;5037700;28;20014;-31
2023/09/17 07:15:57;;;;;;;31.10;20.67;;;;;;;;;;5036806;28;20021;-31
2023/09/17 07:18:22;;;;;;;29.83;18.83;;;;;;;;;;5037065;28;20029;-31
2023/09/17 07:20:49;;;;;;;30.48;20.23;;;;;;;;;;5037078;28;20014;-31
2023/09/17 07:23:15;;;;;;;31.60;20.90;;;;;;;;;;5036845;28;20353;-31
2023/09/17 07:25:40;;;;;;;33.60;21.90;;;;;;;;;;5037234;28;20021;-30
2023/09/17 07:28:07;;;;;;;33.83;20.83;;;;;;;;;;5036604;28;20415;-31
2023/09/17 07:30:35;;;;;;;32.03;20.95;;;;;;;;;;5036539;28;20017;-31
2023/09/17 07:33:01;;;;;;;31.90;21.40;;;;;;;;;;5036854;28;20407;-32
2023/09/17 07:35:27;;;;;;;29.45;21.55;;;;;;;;;;5036764;28;20013;-32
2023/09/17 07:37:52;;;;;;;28.55;19.90;;;;;;;;;;5036676;28;20491;-31
2023/09/17 07:40:17;;;;;;;33.00;22.10;;;;;;;;;;5036395;28;20033;-31
2023/09/17 07:42:43;;;;;;;31.90;21.30;;;;;;;;;;5036520;28;20276;-31
2023/09/17 07:45:08;;;;;;;32.10;20.58;;;;;;;;;;5036284;28;20071;-31
2023/09/17 07:47:34;;;;;;;32.20;20.70;;;;;;;;;;5036540;28;20056;-32
2023/09/17 07:49:59;;;;;;;34.13;22.07;;;;;;;;;;5036229;28;20049;-32
2023/09/17 07:52:24;;;;;;;31.13;20.50;;;;;;;;;;5036716;28;20357;-30
2023/09/17 07:54:49;;;;;;;31.13;20.43;;;;;;;;;;5037321;28;20577;-31
2023/09/17 07:57:14;;;;;;;35.38;20.92;;;;;;;;;;5036375;28;20022;-31
2023/09/17 07:59:40;;;;;;;31.70;20.50;;;;;;;;;;5036058;28;20029;-32
2023/09/17 08:02:05;;;;;;;33.07;20.70;;;;;;;;;;5035928;28;20291;-31
2023/09/17 08:04:30;;;;;;;31.23;20.60;;;;;;;;;;5035877;28;20292;-31
2023/09/17 08:06:56;;;;;;;34.30;21.98;;;;;;;;;;5036182;28;20040;-31
2023/09/17 08:09:22;;;;;;;28.65;19.65;;;;;;;;;;5036184;28;20020;-32
2023/09/17 08:11:48;;;;;;;33.55;20.60;;;;;;;;;;5036413;28;20029;-31
2023/09/17 08:14:14;;;;;;;31.90;20.23;;;;;;;;;;5036795;28;20108;-31
2023/09/17 08:16:40;;;;;;;31.77;20.42;;;;;;;;;;5036075;28;20069;-31
2023/09/17 08:19:05;;;;;;;31.90;20.88;;;;;;;;;;5035874;28;20021;-31
2023/09/17 08:21:30;;;;;;;31.90;20.10;;;;;;;;;;5035621;28;20147;-31
2023/09/17 08:23:55;;;;;;;30.45;20.48;;;;;;;;;;5035834;28;20252;-31
2023/09/17 08:26:21;;;;;;;31.17;19.65;;;;;;;;;;5035827;28;20049;-30
2023/09/17 08:28:47;;;;;;;37.35;20.38;;;;;;;;;;5035795;28;20025;-31
2023/09/17 08:31:12;;;;;;;35.47;20.33;;;;;;;;;;5035719;28;20022;-30
2023/09/17 08:33:37;;;;;;;31.83;20.43;;;;;;;;;;5035997;28;20013;-30
2023/09/17 08:36:03;;;;;;;27.57;18.57;;;;;;;;;;5035344;28;20013;-30
2023/09/17 08:38:29;;;;;;;27.75;18.70;;;;;;;;;;5035528;28;20106;-30
2023/09/17 08:40:55;;;;;;;26.48;18.85;;;;;;;;;;5035543;28;20048;-31
2023/09/17 08:43:20;;;;;;;27.80;18.77;;;;;;;;;;5035112;28;20025;-30
2023/09/17 08:45:45;;;;;;;28.23;18.25;;;;;;;;;;5035211;28;20063;-31
2023/09/17 08:48:10;;;;;;;27.80;18.97;;;;;;;;;;5035446;28;20453;-31
2023/09/17 08:50:36;;;;;;;25.52;18.30;;;;;;;;;;5035402;28;20272;-31
2023/09/17 08:53:04;;;;;;;27.95;17.58;;;;;;;;;;5034997;28;20056;-30
2023/09/17 08:55:31;;;;;;;23.70;16.33;;;;;;;;;;5034946;28;20034;-31
2023/09/17 08:57:59;;;;;;;23.98;17.10;;;;;;;;;;5035129;28;20037;-31
2023/09/17 09:00:25;;;;;;;23.58;15.45;;;;;;;;;;5035154;28;20035;-30
2023/09/17 09:02:59;;;;;;;24.85;14.43;;;;;;;;;;5034712;28;20025;-30
2023/09/17 09:05:26;;;;;;;23.60;15.30;;;;;;;;;;5034799;28;20037;-31
2023/09/17 09:07:51;;;;;;;17.80;13.02;;;;;;;;;;5035033;28;20512;-30
2023/09/17 09:10:18;;;;;;;18.25;12.60;;;;;;;;;;5034679;28;20018;-31
2023/09/17 09:12:44;;;;;;;21.48;13.68;;;;;;;;;;5034307;28;20026;-30
2023/09/17 09:15:10;;;;;;;26.75;15.18;;;;;;;;;;5034586;28;20021;-30
2023/09/17 09:17:35;;;;;;;23.33;14.82;;;;;;;;;;5034810;28;20025;-29
2023/09/17 09:20:03;;;;;;;21.42;15.68;;;;;;;;;;5034461;28;20022;-31
2023/09/17 09:22:28;;;;;;;25.17;16.25;;;;;;;;;;5034716;28;20030;-31
2023/09/17 09:24:54;;;;;;;21.30;15.73;;;;;;;;;;5034701;28;20017;-31
2023/09/17 09:27:19;;;;;;;24.38;16.38;;;;;;;;;;5034610;28;20745;-30
2023/09/17 09:29:45;;;;;;;22.08;15.23;;;;;;;;;;5035103;28;20455;-31
2023/09/17 09:32:11;;;;;;;17.75;13.90;;;;;;;;;;5034526;28;20041;-30
2023/09/17 09:34:37;;;;;;;21.20;14.40;;;;;;;;;;5034239;28;20021;-31
2023/09/17 09:37:06;;;;;;;21.45;14.57;;;;;;;;;;5034153;28;20029;-31
2023/09/17 09:39:32;;;;;;;22.38;15.27;;;;;;;;;;5034441;28;20037;-31
2023/09/17 09:41:58;;;;;;;21.02;14.77;;;;;;;;;;5033969;28;20018;-31
2023/09/17 09:44:26;;;;;;;21.15;14.40;;;;;;;;;;5034626;28;20056;-30
2023/09/17 09:46:57;;;;;;;19.85;13.98;;;;;;;;;;5034049;28;20021;-30
2023/09/17 09:49:23;;;;;;;22.13;15.15;;;;;;;;;;5034522;28;20024;-31
2023/09/17 09:51:49;;;;;;;21.73;14.93;;;;;;;;;;5034022;28;20376;-30
2023/09/17 09:54:14;;;;;;;22.93;14.13;;;;;;;;;;5034376;28;20026;-30
2023/09/17 09:56:39;;;;;;;19.83;13.33;;;;;;;;;;5034354;28;20245;-31
2023/09/17 09:59:06;;;;;;;20.85;14.60;;;;;;;;;;5034426;28;20025;-30
2023/09/17 10:01:35;;;;;;;21.05;14.55;;;;;;;;;;5033978;28;20025;-31
2023/09/17 10:04:01;;;;;;;19.45;14.15;;;;;;;;;;5033675;28;20476;-31
2023/09/17 10:06:26;;;;;;;20.92;13.30;;;;;;;;;;5033976;28;20043;-31
2023/09/17 10:08:52;;;;;;;20.25;14.32;;;;;;;;;;5034012;28;20093;-31
2023/09/17 10:11:19;;;;;;;23.05;13.95;;;;;;;;;;5033687;28;20022;-31
2023/09/17 10:13:44;;;;;;;20.55;14.32;;;;;;;;;;5033911;28;20017;-32
2023/09/17 10:16:09;;;;;;;18.77;13.27;;;;;;;;;;5033613;28;20067;-31
2023/09/17 10:18:36;;;;;;;20.92;14.32;;;;;;;;;;5033489;28;20610;-32
2023/09/17 10:21:02;;;;;;;21.70;14.10;;;;;;;;;;5033904;28;20018;-31
2023/09/17 10:23:28;;;;;;;19.50;13.05;;;;;;;;;;5033689;28;20029;-31
2023/09/17 10:25:55;;;;;;;20.13;13.57;;;;;;;;;;5033455;28;20017;-31
2023/09/17 10:28:21;;;;;;;19.92;12.98;;;;;;;;;;5033460;28;20029;-31
2023/09/17 10:30:47;;;;;;;21.52;13.27;;;;;;;;;;5034004;28;20013;-31
2023/09/17 10:33:14;;;;;;;19.45;13.05;;;;;;;;;;5033693;28;20017;-30
2023/09/17 10:35:42;;;;;;;18.20;13.38;;;;;;;;;;5033421;28;20380;-32
2023/09/17 10:38:07;;;;;;;21.15;13.80;;;;;;;;;;5033480;28;20020;-32
2023/09/17 10:40:36;;;;;;;18.15;12.98;;;;;;;;;;5033294;28;20456;-31
2023/09/17 10:43:02;;;;;;;20.40;13.40;;;;;;;;;;5033545;28;20021;-31
2023/09/17 10:45:30;;;;;;;19.65;14.45;;;;;;;;;;5033579;28;20045;-31
2023/09/17 10:47:58;;;;;;;18.98;13.65;;;;;;;;;;5033554;28;20022;-30
2023/09/17 10:50:25;;;;;;;21.10;13.55;;;;;;;;;;5033456;28;20040;-31
2023/09/17 10:52:50;;;;;;;24.75;14.15;;;;;;;;;;5033426;28;20371;-31
2023/09/17 10:55:16;;;;;;;20.63;14.63;;;;;;;;;;5031948;28;20017;-31
2023/09/17 10:57:44;;;;;;;19.23;14.57;;;;;;;;;;5033004;28;20331;-31
2023/09/17 11:00:13;;;;;;;24.05;15.00;;;;;;;;;;5033084;28;20025;-31
2023/09/17 11:02:41;;;;;;;20.60;14.95;;;;;;;;;;5033282;28;20397;-31
2023/09/17 11:05:08;;;;;;;23.23;14.68;;;;;;;;;;5032974;28;20034;-30
2023/09/17 11:07:33;;;;;;;22.75;14.93;;;;;;;;;;5033260;28;20017;-31
2023/09/17 11:10:01;;;;;;;24.30;15.90;;;;;;;;;;5033133;28;20024;-30
2023/09/17 11:12:26;;;;;;;22.30;15.80;;;;;;;;;;5033274;28;20260;-30
2023/09/17 11:14:52;;;;;;;24.03;16.63;;;;;;;;;;5033265;28;20092;-31
2023/09/17 11:17:18;;;;;;;24.38;16.08;;;;;;;;;;5032945;28;20251;-31
2023/09/17 11:19:43;;;;;;;23.60;16.75;;;;;;;;;;5033171;28;20033;-31
2023/09/17 11:22:08;;;;;;;27.47;18.17;;;;;;;;;;5032858;28;20033;-29
2023/09/17 11:24:34;;;;;;;25.65;17.60;;;;;;;;;;5032914;28;20626;-31
2023/09/17 11:27:01;;;;;;;26.33;17.23;;;;;;;;;;5032867;28;20469;-30
2023/09/17 11:29:39;;;;;;;26.08;17.38;;;;;;;;;;5033209;28;20025;-30
2023/09/17 11:32:04;;;;;;;28.17;18.88;;;;;;;;;;5033092;28;20014;-31
2023/09/17 11:34:29;;;;;;;25.83;17.92;;;;;;;;;;5032783;28;20484;-31
2023/09/17 11:36:57;;;;;;;26.10;17.80;;;;;;;;;;5034798;28;20041;-31
2023/09/17 11:39:22;;;;;;;26.20;18.33;;;;;;;;;;5036772;28;20021;-32
2023/09/17 11:41:52;;;;;;;28.80;19.63;;;;;;;;;;5036914;28;20033;-32
2023/09/17 11:44:17;;;;;;;26.63;18.50;;;;;;;;;;5036301;28;20020;-31
2023/09/17 11:46:42;;;;;;;30.00;18.15;;;;;;;;;;5036880;28;20021;-31
2023/09/17 11:49:08;;;;;;;29.73;18.95;;;;;;;;;;5036586;28;20047;-31
2023/09/17 11:51:34;;;;;;;26.48;18.20;;;;;;;;;;5036161;28;20021;-31
2023/09/17 11:54:03;;;;;;;32.30;19.38;;;;;;;;;;5036407;28;20026;-31
2023/09/17 11:56:35;;;;;;;28.83;19.50;;;;;;;;;;5036177;28;20029;-31
2023/09/17 11:59:03;;;;;;;30.50;19.33;;;;;;;;;;5036326;28;20025;-32
2023/09/17 12:01:52;;;;;;;31.40;20.77;;;;;;;;;;5036007;28;20119;-31
2023/09/17 12:04:18;;;;;;;32.47;20.50;;;;;;;;;;5030363;28;20042;-31
2023/09/17 12:06:46;;;;;;;35.90;21.55;;;;;;;;;;5036210;28;20040;-32
2023/09/17 12:09:23;;;;;;;34.97;20.65;;;;;;;;;;5035883;28;20017;-31
2023/09/17 12:11:49;;;;;;;36.65;21.88;;;;;;;;;;5035036;28;20022;-32
2023/09/17 12:14:14;;;;;;;38.05;22.38;;;;;;;;;;5035828;28;20032;-32
2023/09/17 12:16:39;;;;;;;38.42;22.92;;;;;;;;;;5036269;28;20021;-31
2023/09/17 12:19:05;;;;;;;39.10;23.00;;;;;;;;;;5034425;28;20105;-32
2023/09/17 12:21:37;;;;;;;36.92;22.77;;;;;;;;;;5035560;28;20029;-32
2023/09/17 12:24:06;;;;;;;40.35;23.30;;;;;;;;;;5035968;28;20024;-31
2023/09/17 12:26:44;;;;;;;43.85;23.60;;;;;;;;;;5035877;28;20017;-32
2023/09/17 12:29:10;;;;;;;45.33;24.70;;;;;;;;;;5035777;28;20112;-31
2023/09/17 12:31:36;;;;;;;42.03;24.48;;;;;;;;;;5035304;28;20448;-31
2023/09/17 12:34:02;;;;;;;46.28;25.52;;;;;;;;;;5033841;28;20116;-31
2023/09/17 12:36:27;;;;;;;42.58;23.83;;;;;;;;;;5035378;28;20052;-31
2023/09/17 12:38:52;;;;;;;43.43;25.30;;;;;;;;;;5034142;28;20033;-31
2023/09/17 12:41:17;;;;;;;44.80;25.70;;;;;;;;;;5033118;28;20096;-31
2023/09/17 12:43:43;;;;;;;49.65;27.05;;;;;;;;;;5033270;28;20264;-32
2023/09/17 12:46:08;;;;;;;47.33;25.90;;;;;;;;;;5032991;28;20059;-31
2023/09/17 12:48:34;;;;;;;44.10;25.90;;;;;;;;;;5032178;28;20307;-32
2023/09/17 12:50:59;;;;;;;46.35;26.02;;;;;;;;;;5033928;28;20017;-32
2023/09/17 12:53:24;;;;;;;49.45;26.05;;;;;;;;;;5034223;28;20024;-32
2023/09/17 12:55:50;;;;;;;46.45;25.70;;;;;;;;;;5034997;28;20048;-31
2023/09/17 12:58:16;;;;;;;50.70;26.50;;;;;;;;;;5034090;28;20025;-31
2023/09/17 13:00:42;;;;;;;48.17;27.63;;;;;;;;;;5035109;28;20288;-31
2023/09/17 13:03:11;;;;;;;50.63;28.13;;;;;;;;;;5034679;28;20064;-30
2023/09/17 13:05:36;;;;;;;51.95;26.88;;;;;;;;;;5034862;28;20493;-31
2023/09/17 13:08:03;;;;;;;54.22;27.38;;;;;;;;;;5032524;28;20104;-31
2023/09/17 13:10:28;;;;;;;48.97;26.30;;;;;;;;;;5035024;28;20056;-31
2023/09/17 13:12:53;;;;;;;51.27;27.73;;;;;;;;;;5034685;28;20434;-32
2023/09/17 13:15:19;;;;;;;48.47;25.60;;;;;;;;;;5034619;28;20342;-31
2023/09/17 13:17:44;;;;;;;48.78;25.85;;;;;;;;;;5034485;28;20256;-31
2023/09/17 13:20:10;;;;;;;55.75;25.98;;;;;;;;;;5034386;28;20446;-31
2023/09/17 13:22:35;;;;;;;52.53;26.48;;;;;;;;;;5034591;28;20071;-31
2023/09/17 13:25:01;;;;;;;48.88;26.58;;;;;;;;;;5034562;28;20022;-31
2023/09/17 13:27:29;;;;;;;51.92;26.17;;;;;;;;;;5034371;28;20024;-32
2023/09/17 13:29:56;;;;;;;49.38;25.40;;;;;;;;;;5034365;28;20021;-31
2023/09/17 13:32:21;;;;;;;49.40;24.80;;;;;;;;;;5034362;28;20033;-32
2023/09/17 13:34:47;;;;;;;50.45;25.50;;;;;;;;;;5034421;28;20097;-31
2023/09/17 13:37:13;;;;;;;54.78;26.85;;;;;;;;;;5034843;28;20052;-31
2023/09/17 13:39:38;;;;;;;50.22;26.05;;;;;;;;;;5034084;28;20021;-32
2023/09/17 13:42:04;;;;;;;54.90;26.27;;;;;;;;;;5034232;28;20072;-31
2023/09/17 13:44:29;;;;;;;51.72;25.50;;;;;;;;;;5034268;28;20341;-31
2023/09/17 13:46:55;;;;;;;53.73;25.63;;;;;;;;;;5034544;28;20108;-31
2023/09/17 13:49:21;;;;;;;51.08;26.08;;;;;;;;;;5034290;28;20111;-32
2023/09/17 13:51:46;;;;;;;56.30;25.42;;;;;;;;;;5034122;28;20021;-32
2023/09/17 13:54:11;;;;;;;48.80;24.07;;;;;;;;;;5033815;28;20026;-32
2023/09/17 13:56:36;;;;;;;57.70;27.03;;;;;;;;;;5034508;28;20021;-31
2023/09/17 13:59:01;;;;;;;51.67;25.40;;;;;;;;;;5034079;28;20375;-32
2023/09/17 14:01:27;;;;;;;58.23;25.07;;;;;;;;;;5033928;28;20028;-32
2023/09/17 14:03:52;;;;;;;53.17;25.40;;;;;;;;;;5033616;28;20284;-31
2023/09/17 14:06:17;;;;;;;50.77;26.23;;;;;;;;;;5033718;28;20252;-31
2023/09/17 14:08:42;;;;;;;56.00;26.07;;;;;;;;;;5034212;28;20267;-31
2023/09/17 14:11:07;;;;;;;49.10;25.73;;;;;;;;;;5033604;28;20021;-31